createdAt,value
2023-01-21T00:01:22.089Z,-2.04
2023-01-21T00:06:23.298Z,-2.05
2023-01-21T00:11:24.487Z,-1.93
2023-01-21T00:16:25.838Z,-1.96
2023-01-21T00:21:26.973Z,-1.96
2023-01-21T00:26:28.165Z,-2.03
2023-01-21T00:31:29.428Z,-2.15
2023-01-21T00:36:30.868Z,-2.14
2023-01-21T00:41:32.112Z,-2.14
2023-01-21T00:46:33.401Z,-2.21
2023-01-21T00:51:34.624Z,-2.20
2023-01-21T00:56:35.832Z,-2.15
2023-01-21T01:01:38.543Z,-2.14
2023-01-21T01:06:39.801Z,-2.08
2023-01-21T01:11:41.031Z,-2.04
2023-01-21T01:16:42.239Z,-1.96
2023-01-21T01:21:43.381Z,-1.93
2023-01-21T01:26:44.568Z,-1.96
2023-01-21T01:31:45.822Z,-2.03
2023-01-21T01:36:47.961Z,-2.09
2023-01-21T01:41:49.146Z,-2.15
2023-01-21T01:46:50.355Z,-2.06
2023-01-21T01:51:51.588Z,-2.03
2023-01-21T01:56:52.851Z,-2.05
2023-01-21T02:01:55.844Z,-2.13
2023-01-21T02:06:57.041Z,-2.16
2023-01-21T02:12:00.297Z,-2.13
2023-01-21T02:17:01.582Z,-2.10
2023-01-21T02:22:02.787Z,-2.11
2023-01-21T02:27:04.014Z,-2.07
2023-01-21T02:32:05.287Z,-2.03
2023-01-21T02:37:06.494Z,-1.99
2023-01-21T02:42:07.700Z,-2.08
2023-01-21T02:47:08.880Z,-2.09
2023-01-21T02:52:10.074Z,-2.15
2023-01-21T02:57:11.276Z,-2.19
2023-01-21T03:02:12.483Z,-2.22
2023-01-21T03:07:15.960Z,-2.25
2023-01-21T03:12:17.173Z,-2.30
2023-01-21T03:17:18.330Z,-2.31
2023-01-21T03:22:19.538Z,-2.24
2023-01-21T03:27:20.758Z,-2.26
2023-01-21T03:32:21.942Z,-2.30
2023-01-21T03:37:23.214Z,-2.38
2023-01-21T03:42:24.403Z,-2.36
2023-01-21T03:47:26.480Z,-2.35
2023-01-21T03:52:27.741Z,-2.40
2023-01-21T03:57:29.027Z,-2.54
2023-01-21T04:02:31.421Z,-2.57
2023-01-21T04:07:32.644Z,-2.65
2023-01-21T04:12:33.842Z,-2.57
2023-01-21T04:17:35.044Z,-2.58
2023-01-21T04:22:36.297Z,-2.65
2023-01-21T04:27:37.519Z,-2.56
2023-01-21T04:32:38.750Z,-2.56
2023-01-21T04:37:40.001Z,-2.55
2023-01-21T04:42:41.238Z,-2.48
2023-01-21T04:47:42.503Z,-2.43
2023-01-21T04:52:43.701Z,-2.47
2023-01-21T04:57:44.891Z,-2.47
2023-01-21T05:02:48.133Z,-2.53
2023-01-21T05:07:49.305Z,-2.52
2023-01-21T05:12:50.479Z,-2.69
2023-01-21T05:17:51.633Z,-2.75
2023-01-21T05:22:52.837Z,-2.70
2023-01-21T05:27:54.402Z,-2.71
2023-01-21T05:32:55.600Z,-2.56
2023-01-21T05:37:58.859Z,-2.49
2023-01-21T05:43:01.366Z,-2.52
2023-01-21T05:48:02.489Z,-2.53
2023-01-21T05:53:04.642Z,-2.56
2023-01-21T05:58:05.813Z,-2.57
2023-01-21T06:03:06.956Z,-2.64
2023-01-21T06:08:08.151Z,-2.62
2023-01-21T06:13:09.336Z,-2.67
2023-01-21T06:18:10.469Z,-2.66
2023-01-21T06:23:11.977Z,-2.71
2023-01-21T06:28:13.202Z,-2.80
2023-01-21T06:33:16.655Z,-2.90
2023-01-21T06:38:21.269Z,-2.96
2023-01-21T06:43:22.396Z,-3.00
2023-01-21T06:48:23.520Z,-2.99
2023-01-21T06:53:24.797Z,-3.00
2023-01-21T06:58:26.078Z,-2.97
2023-01-21T07:03:27.371Z,-3.09
2023-01-21T07:08:28.525Z,-3.18
2023-01-21T07:13:29.711Z,-3.27
2023-01-21T07:18:30.863Z,-3.34
2023-01-21T07:23:32.013Z,-3.30
2023-01-21T07:28:33.168Z,-3.27
2023-01-21T07:33:34.331Z,-3.31
2023-01-21T07:38:35.481Z,-3.44
2023-01-21T07:43:36.643Z,-3.46
2023-01-21T07:48:37.797Z,-3.42
2023-01-21T07:53:41.083Z,-3.40
2023-01-21T07:58:42.282Z,-3.44
2023-01-21T08:03:43.484Z,-3.43
2023-01-21T08:08:44.735Z,-3.39
2023-01-21T08:13:45.948Z,-3.33
2023-01-21T08:18:47.125Z,-3.23
2023-01-21T08:23:48.295Z,-3.14
2023-01-21T08:28:49.481Z,-3.00
2023-01-21T08:33:50.650Z,-2.72
2023-01-21T08:38:51.805Z,-2.43
2023-01-21T08:43:55.020Z,-2.13
2023-01-21T08:48:56.164Z,-1.91
2023-01-21T08:53:57.331Z,-1.74
2023-01-21T08:58:58.622Z,-1.56
2023-01-21T09:03:59.844Z,-1.50
2023-01-21T09:09:01.574Z,-1.37
2023-01-21T09:14:04.053Z,-1.29
2023-01-21T09:19:05.429Z,-1.20
2023-01-21T09:24:06.631Z,-1.06
2023-01-21T09:29:09.310Z,-0.99
2023-01-21T09:34:12.984Z,-0.88
2023-01-21T09:39:14.113Z,-0.80
2023-01-21T09:44:15.282Z,-0.70
2023-01-21T09:49:16.421Z,-0.65
2023-01-21T09:54:17.591Z,-0.59
2023-01-21T09:59:20.922Z,-0.53
2023-01-21T10:04:22.219Z,-0.75
2023-01-21T10:09:23.610Z,-0.38
2023-01-21T10:14:24.817Z,-0.33
2023-01-21T10:19:28.349Z,-0.28
2023-01-21T10:24:29.524Z,-0.28
2023-01-21T10:29:30.750Z,-0.25
2023-01-21T10:34:32.039Z,-0.27
2023-01-21T10:39:33.208Z,-0.24
2023-01-21T10:44:34.362Z,-0.11
2023-01-21T10:49:36.705Z,-0.07
2023-01-21T10:54:39.929Z,0.01
2023-01-21T10:59:41.203Z,0.07
2023-01-21T11:04:44.646Z,0.16
2023-01-21T11:09:46.016Z,0.15
2023-01-21T11:14:47.189Z,0.20
2023-01-21T11:19:48.664Z,0.23
2023-01-21T11:24:51.586Z,0.26
2023-01-21T11:29:54.381Z,0.31
2023-01-21T11:34:55.535Z,0.36
2023-01-21T11:39:56.794Z,0.46
2023-01-21T11:44:59.292Z,0.55
2023-01-21T11:55:15.651Z,0.69
2023-01-21T12:00:17.519Z,0.78
2023-01-21T12:05:18.821Z,0.81
2023-01-21T12:10:19.977Z,0.86
2023-01-21T12:15:21.156Z,0.91
2023-01-21T12:20:22.413Z,0.99
2023-01-21T12:25:23.666Z,1.06
2023-01-21T12:30:24.961Z,1.08
2023-01-21T12:35:26.164Z,1.12
2023-01-21T12:40:27.339Z,1.21
2023-01-21T12:45:28.566Z,1.26
2023-01-21T12:50:29.763Z,1.22
2023-01-21T12:55:30.915Z,1.13
2023-01-21T13:00:32.220Z,1.19
2023-01-21T13:05:33.443Z,1.25
2023-01-21T13:10:34.584Z,1.31
2023-01-21T13:15:35.775Z,1.32
2023-01-21T13:20:36.993Z,1.25
2023-01-21T13:25:38.235Z,1.20
2023-01-21T13:30:39.498Z,1.19
2023-01-21T13:35:40.673Z,1.13
2023-01-21T13:40:41.925Z,1.22
2023-01-21T13:45:43.178Z,1.21
2023-01-21T13:50:44.518Z,1.07
2023-01-21T13:55:45.699Z,0.98
2023-01-21T14:00:47.071Z,0.97
2023-01-21T14:05:48.216Z,0.98
2023-01-21T14:10:49.405Z,0.88
2023-01-21T14:15:50.540Z,0.84
2023-01-21T14:20:52.639Z,0.87
2023-01-21T14:25:54.003Z,0.88
2023-01-21T14:30:55.225Z,0.84
2023-01-21T14:35:56.429Z,0.84
2023-01-21T14:40:57.562Z,0.84
2023-01-21T14:45:58.920Z,0.87
2023-01-21T14:51:00.212Z,0.87
2023-01-21T14:56:01.450Z,0.87
2023-01-21T15:01:02.659Z,0.88
2023-01-21T15:06:03.873Z,0.92
2023-01-21T15:11:05.254Z,0.93
2023-01-21T15:16:08.246Z,0.94
2023-01-21T15:21:09.402Z,0.93
2023-01-21T15:26:13.426Z,0.94
2023-01-21T15:31:14.752Z,0.96
2023-01-21T15:36:16.007Z,0.84
2023-01-21T15:41:17.220Z,0.75
2023-01-21T15:46:18.489Z,0.69
2023-01-21T15:51:20.814Z,0.59
2023-01-21T15:56:22.070Z,0.26
2023-01-21T16:01:24.568Z,0.53
2023-01-21T16:06:25.778Z,0.51
2023-01-21T16:11:26.904Z,0.51
2023-01-21T16:16:28.040Z,0.53
2023-01-21T16:21:29.191Z,0.55
2023-01-21T16:26:32.731Z,0.57
2023-01-21T16:31:34.415Z,0.56
2023-01-21T16:36:35.661Z,0.56
2023-01-21T16:41:36.981Z,0.51
2023-01-21T16:46:38.449Z,0.52
2023-01-21T16:51:41.410Z,0.48
2023-01-21T16:56:42.542Z,0.43
2023-01-21T17:01:43.796Z,0.38
2023-01-21T17:06:47.428Z,0.35
2023-01-21T17:11:48.637Z,0.30
2023-01-21T17:16:49.919Z,0.27
2023-01-21T17:21:55.189Z,0.27
2023-01-21T17:27:03.447Z,0.26
2023-01-21T17:32:04.699Z,0.21
2023-01-21T17:37:07.624Z,0.14
2023-01-21T17:42:08.963Z,0.11
2023-01-21T17:47:11.205Z,0.05
2023-01-21T17:52:12.399Z,-0.01
2023-01-21T17:57:13.603Z,-0.01
2023-01-21T18:02:14.885Z,-0.03
2023-01-21T18:07:16.092Z,-0.06
2023-01-21T18:12:19.399Z,-0.07
2023-01-21T18:17:29.849Z,-0.06
2023-01-21T18:22:31.858Z,-0.10
2023-01-21T18:27:33.048Z,-0.10
2023-01-21T18:32:34.271Z,-0.14
2023-01-21T18:37:35.481Z,-0.16
2023-01-21T18:42:36.639Z,-0.19
2023-01-21T18:47:37.798Z,-0.19
2023-01-21T18:52:39.013Z,-0.21
2023-01-21T18:57:40.213Z,-0.24
2023-01-21T19:02:41.416Z,-0.25
2023-01-21T19:07:42.550Z,-0.27
2023-01-21T19:12:43.766Z,-0.37
2023-01-21T19:17:45.000Z,-0.38
2023-01-21T19:22:46.255Z,-0.34
2023-01-21T19:27:47.448Z,-0.38
2023-01-21T19:32:48.851Z,-0.45
2023-01-21T19:37:50.105Z,-0.47
2023-01-21T19:42:51.304Z,-0.48
2023-01-21T19:47:52.536Z,-0.45
2023-01-21T19:52:53.703Z,-0.41
2023-01-21T19:57:54.869Z,-0.39
2023-01-21T20:02:56.087Z,-0.34
2023-01-21T20:07:57.379Z,-0.31
2023-01-21T20:12:58.598Z,-0.34
2023-01-21T20:18:02.080Z,-0.35
2023-01-21T20:23:03.319Z,-0.36
2023-01-21T20:28:04.543Z,-0.37
2023-01-21T20:33:05.726Z,-0.37
2023-01-21T20:38:06.958Z,-0.33
2023-01-21T20:43:08.101Z,-0.36
2023-01-21T20:48:09.325Z,-0.36
2023-01-21T20:53:10.500Z,-0.34
2023-01-21T20:58:11.849Z,-0.32
2023-01-21T21:03:13.029Z,-0.31
2023-01-21T21:08:15.986Z,-0.28
2023-01-21T21:13:18.688Z,-0.89
2023-01-21T21:18:19.864Z,-0.26
2023-01-21T21:23:21.054Z,-0.28
2023-01-21T21:28:22.245Z,-0.28
2023-01-21T21:33:23.537Z,-0.34
2023-01-21T21:38:28.113Z,-0.36
2023-01-21T21:43:34.404Z,-0.38
2023-01-21T21:48:38.773Z,-0.37
2023-01-21T21:53:39.988Z,-0.34
2023-01-21T21:58:41.291Z,-0.34
2023-01-21T22:03:42.434Z,-0.32
2023-01-21T22:08:46.502Z,-0.30
2023-01-21T22:13:50.133Z,-0.27
2023-01-21T22:18:51.696Z,-0.23
2023-01-21T22:23:52.948Z,-0.18
2023-01-21T22:28:54.158Z,-0.13
2023-01-21T22:33:57.439Z,-0.08
2023-01-21T22:38:58.710Z,0.03
2023-01-21T22:43:59.889Z,0.12
2023-01-21T22:49:01.101Z,0.26
2023-01-21T22:54:02.327Z,0.39
2023-01-21T22:59:03.479Z,0.45
2023-01-21T23:04:04.743Z,0.56
2023-01-21T23:09:09.173Z,0.60
2023-01-21T23:14:12.696Z,0.55
2023-01-21T23:19:13.900Z,0.55
2023-01-21T23:24:15.174Z,0.56
2023-01-21T23:29:16.375Z,0.51
2023-01-21T23:34:19.704Z,0.57
2023-01-21T23:39:22.433Z,0.53
2023-01-21T23:44:27.757Z,0.52
2023-01-21T23:49:28.957Z,0.52
2023-01-21T23:54:30.155Z,0.54
2023-01-21T23:59:32.271Z,0.57
